McMullen, Alabama
Current Conditions -  °F | °C
As of 11:53 PM on Tuesday 27 Jan 2015 (Local Time) from KTCL Reporting Station
Clear Clear  
Wind Chill: 35°   Ceiling: Unl
Heat Index: 40°   Visibility: 10mi
Dew Point: 31°   Wind: 7mph
Humidity: 70%   Direction: 20°NNE
Pressure: 30.21"   Gusts: NA
Location:  33.1204°N, 88.1617°W
Report Text: KTCL 280553Z AUTO 02006KT 10SM CLR 04/M01 A3021 RMK AO2 SLP227 T00441006 10111 20039 401611017 53013
Loading
Personal Weather Stations






























Interactive Weather Map New forecast layout! Learn more

10-Day Weather Forecast

Advertisements
Track Severe Weather on mobile